sensor_id;sensor_type;location;lat;lon;timestamp;temperature;humidity
37032;DHT22;22940;52.266;10.536;2023-02-01T10:36:25;7.60;99.90
37032;DHT22;22940;52.266;10.536;2023-02-01T10:38:53;7.60;99.90
37032;DHT22;22940;52.266;10.536;2023-02-01T10:41:22;7.70;99.90
37032;DHT22;22940;52.266;10.536;2023-02-01T10:43:50;7.90;99.90
37032;DHT22;22940;52.266;10.536;2023-02-01T10:46:17;7.90;99.90
37032;DHT22;22940;52.266;10.536;2023-02-01T10:48:42;8.00;99.90
37032;DHT22;22940;52.266;10.536;2023-02-01T10:51:42;8.10;99.90
37032;DHT22;22940;52.266;10.536;2023-02-01T10:54:01;8.10;95.80
37032;DHT22;22940;52.266;10.536;2023-02-01T10:56:28;8.10;95.70
37032;DHT22;22940;52.266;10.536;2023-02-01T10:59:04;8.10;80.90
37032;DHT22;22940;52.266;10.536;2023-02-01T11:01:31;8.10;83.30
37032;DHT22;22940;52.266;10.536;2023-02-01T11:03:59;7.90;83.90
37032;DHT22;22940;52.266;10.536;2023-02-01T11:08:53;7.80;90.50
37032;DHT22;22940;52.266;10.536;2023-02-01T11:11:19;7.80;91.00
37032;DHT22;22940;52.266;10.536;2023-02-01T11:13:45;7.80;92.10
37032;DHT22;22940;52.266;10.536;2023-02-01T11:16:16;7.80;93.00
37032;DHT22;22940;52.266;10.536;2023-02-01T11:18:43;7.80;92.50
37032;DHT22;22940;52.266;10.536;2023-02-01T11:21:09;7.70;92.70
37032;DHT22;22940;52.266;10.536;2023-02-01T11:23:39;7.70;91.50
37032;DHT22;22940;52.266;10.536;2023-02-01T11:26:22;7.60;92.70
37032;DHT22;22940;52.266;10.536;2023-02-01T11:29:02;7.60;91.90
37032;DHT22;22940;52.266;10.536;2023-02-01T11:31:28;7.60;93.40
37032;DHT22;22940;52.266;10.536;2023-02-01T11:34:40;7.70;94.00
37032;DHT22;22940;52.266;10.536;2023-02-01T11:36:40;7.60;92.70
37032;DHT22;22940;52.266;10.536;2023-02-01T11:39:24;7.60;92.70
37032;DHT22;22940;52.266;10.536;2023-02-01T11:44:45;7.60;93.00
37032;DHT22;22940;52.266;10.536;2023-02-01T11:49:55;7.60;91.20
37032;DHT22;22940;52.266;10.536;2023-02-01T12:02:35;7.90;88.70
37032;DHT22;22940;52.266;10.536;2023-02-01T12:05:07;7.80;83.50
37032;DHT22;22940;52.266;10.536;2023-02-01T12:10:39;7.80;81.30
37032;DHT22;22940;52.266;10.536;2023-02-01T12:18:08;7.70;74.50
37032;DHT22;22940;52.266;10.536;2023-02-01T12:28:01;7.90;70.00
37032;DHT22;22940;52.266;10.536;2023-02-01T12:30:39;8.00;68.70
37032;DHT22;22940;52.266;10.536;2023-02-01T12:36:03;7.90;70.60
37032;DHT22;22940;52.266;10.536;2023-02-01T12:38:54;7.90;72.10
37032;DHT22;22940;52.266;10.536;2023-02-01T12:43:51;8.00;67.40
37032;DHT22;22940;52.266;10.536;2023-02-01T12:46:31;7.90;67.30
37032;DHT22;22940;52.266;10.536;2023-02-01T12:51:34;7.70;73.10
37032;DHT22;22940;52.266;10.536;2023-02-01T12:54:02;7.70;74.30
37032;DHT22;22940;52.266;10.536;2023-02-01T12:56:38;7.50;78.50
37032;DHT22;22940;52.266;10.536;2023-02-01T12:59:12;7.50;82.00
37032;DHT22;22940;52.266;10.536;2023-02-01T13:01:42;7.40;85.60
37032;DHT22;22940;52.266;10.536;2023-02-01T13:04:20;7.30;90.10
37032;DHT22;22940;52.266;10.536;2023-02-01T13:06:47;7.20;95.20
37032;DHT22;22940;52.266;10.536;2023-02-01T13:11:44;7.20;99.90
37032;DHT22;22940;52.266;10.536;2023-02-01T13:14:27;7.20;99.90
37032;DHT22;22940;52.266;10.536;2023-02-01T13:16:59;7.20;99.90
37032;DHT22;22940;52.266;10.536;2023-02-01T13:19:31;7.00;99.90
37032;DHT22;22940;52.266;10.536;2023-02-01T13:22:00;6.90;99.90
37032;DHT22;22940;52.266;10.536;2023-02-01T13:24:33;6.90;99.90
37032;DHT22;22940;52.266;10.536;2023-02-01T13:27:01;6.90;99.90
37032;DHT22;22940;52.266;10.536;2023-02-01T13:29:27;6.80;99.90
37032;DHT22;22940;52.266;10.536;2023-02-01T13:42:16;6.70;99.90
37032;DHT22;22940;52.266;10.536;2023-02-01T13:44:50;6.70;99.90
37032;DHT22;22940;52.266;10.536;2023-02-01T13:47:32;6.60;99.90
37032;DHT22;22940;52.266;10.536;2023-02-01T13:50:40;6.60;99.90
37032;DHT22;22940;52.266;10.536;2023-02-01T13:52:55;6.60;99.90
37032;DHT22;22940;52.266;10.536;2023-02-01T14:15:32;5.00;99.90
37032;DHT22;22940;52.266;10.536;2023-02-01T14:17:57;4.90;99.90
37032;DHT22;22940;52.266;10.536;2023-02-01T14:20:42;4.90;99.90
37032;DHT22;22940;52.266;10.536;2023-02-01T14:23:12;4.90;99.90
